createdAt,value
2022-12-26T00:01:10.890Z,0.77
2022-12-26T00:03:39.431Z,0.77
2022-12-26T00:06:17.282Z,0.82
2022-12-26T00:08:45.778Z,0.90
2022-12-26T00:11:14.607Z,0.68
2022-12-26T00:13:42.626Z,0.75
2022-12-26T00:16:15.582Z,0.79
2022-12-26T00:18:43.817Z,0.77
2022-12-26T00:21:13.632Z,0.80
2022-12-26T00:23:41.440Z,0.75
2022-12-26T00:26:12.903Z,0.68
2022-12-26T00:28:41.082Z,0.59
2022-12-26T00:31:15.454Z,0.56
2022-12-26T00:33:43.279Z,0.36
2022-12-26T00:36:15.388Z,0.25
2022-12-26T00:38:44.402Z,0.38
2022-12-26T00:41:13.128Z,0.55
2022-12-26T00:43:40.530Z,0.48
2022-12-26T00:46:08.738Z,0.43
2022-12-26T00:48:36.171Z,0.43
2022-12-26T00:51:04.766Z,0.47
2022-12-26T00:53:33.223Z,0.35
2022-12-26T00:56:00.575Z,0.12
2022-12-26T00:58:28.020Z,0.17
2022-12-26T01:00:56.343Z,0.01
2022-12-26T01:03:23.808Z,-0.20
2022-12-26T01:05:51.987Z,-0.13
2022-12-26T01:08:24.451Z,0.05
2022-12-26T01:10:52.810Z,0.21
2022-12-26T01:13:21.000Z,0.25
2022-12-26T01:15:52.920Z,0.14
2022-12-26T01:18:21.365Z,0.06
2022-12-26T01:20:49.661Z,0.14
2022-12-26T01:23:17.672Z,0.13
2022-12-26T01:26:18.819Z,0.13
2022-12-26T01:28:32.959Z,0.06
2022-12-26T01:31:05.563Z,0.06
2022-12-26T01:33:33.731Z,0.26
2022-12-26T01:36:01.410Z,-0.03
2022-12-26T01:38:29.285Z,0.09
2022-12-26T01:41:15.120Z,-0.03
2022-12-26T01:44:27.903Z,-0.01
2022-12-26T01:46:55.215Z,0.04
2022-12-26T01:49:32.328Z,0.00
2022-12-26T01:52:10.286Z,-0.05
2022-12-26T01:54:42.983Z,-0.01
2022-12-26T01:57:23.079Z,0.17
2022-12-26T01:59:52.762Z,-0.06
2022-12-26T02:02:21.334Z,-0.15
2022-12-26T02:05:11.187Z,-0.24
2022-12-26T02:07:43.390Z,-0.25
2022-12-26T02:10:23.959Z,-0.41
2022-12-26T02:12:51.721Z,-0.33
2022-12-26T02:15:19.553Z,-0.22
2022-12-26T02:17:47.126Z,-0.28
2022-12-26T02:20:29.254Z,-0.11
2022-12-26T02:23:15.629Z,-0.15
2022-12-26T02:26:18.150Z,-0.11
2022-12-26T02:29:13.672Z,-0.36
2022-12-26T02:31:56.713Z,-0.24
2022-12-26T02:35:01.649Z,-0.26
2022-12-26T02:37:47.586Z,-0.23
2022-12-26T02:40:31.189Z,-0.06
2022-12-26T02:43:19.696Z,-0.33
2022-12-26T02:46:08.604Z,-0.54
2022-12-26T02:48:42.051Z,-0.46
2022-12-26T02:51:37.111Z,-0.42
2022-12-26T02:54:41.987Z,-0.44
2022-12-26T02:57:35.335Z,-0.37
2022-12-26T03:00:31.892Z,-0.28
2022-12-26T03:03:40.676Z,-0.45
2022-12-26T03:06:33.715Z,-0.62
2022-12-26T03:09:27.915Z,-0.56
2022-12-26T03:12:20.169Z,-0.49
2022-12-26T03:14:58.251Z,-0.57
2022-12-26T03:17:25.440Z,-0.64
2022-12-26T03:19:59.740Z,-0.58
2022-12-26T03:22:41.931Z,-0.39
2022-12-26T03:25:54.261Z,-0.34
2022-12-26T03:28:25.484Z,-0.34
2022-12-26T03:30:56.212Z,-0.56
2022-12-26T03:33:45.004Z,-0.40
2022-12-26T03:36:22.865Z,-0.49
2022-12-26T03:39:10.307Z,-0.84
2022-12-26T03:42:29.299Z,-0.62
2022-12-26T03:46:29.131Z,-0.57
2022-12-26T03:49:28.476Z,-0.69
2022-12-26T03:52:34.981Z,-0.74
2022-12-26T03:55:52.775Z,-0.85
2022-12-26T03:58:51.324Z,-0.78
2022-12-26T04:01:41.989Z,-0.78
2022-12-26T04:04:31.665Z,-0.77
2022-12-26T04:07:23.647Z,-0.87
2022-12-26T04:10:20.263Z,-0.81
2022-12-26T04:16:18.014Z,-0.36
2022-12-26T04:19:11.944Z,-0.36
2022-12-26T04:22:11.701Z,-0.91
2022-12-26T04:25:49.487Z,-0.74
2022-12-26T04:28:34.751Z,-0.87
2022-12-26T04:31:28.412Z,-0.81
2022-12-26T04:34:20.254Z,-0.87
2022-12-26T04:37:14.916Z,-0.90
2022-12-26T04:40:06.588Z,-1.13
2022-12-26T04:42:54.367Z,-0.91
2022-12-26T04:45:23.273Z,-0.90
2022-12-26T04:48:10.189Z,-0.84
2022-12-26T04:50:48.774Z,-0.81
2022-12-26T04:53:17.560Z,-0.96
2022-12-26T04:55:45.541Z,-0.79
2022-12-26T04:58:13.188Z,-0.79
2022-12-26T05:00:40.843Z,-0.83
2022-12-26T05:03:31.587Z,-0.85
2022-12-26T05:06:19.180Z,-1.02
2022-12-26T05:09:06.284Z,-0.98
2022-12-26T05:11:36.029Z,-0.90
2022-12-26T05:14:03.356Z,-0.75
2022-12-26T05:17:09.216Z,-0.80
2022-12-26T05:19:55.833Z,-0.62
2022-12-26T05:22:43.327Z,-0.83
2022-12-26T05:25:38.008Z,-0.78
2022-12-26T05:28:23.626Z,-0.72
2022-12-26T05:30:52.001Z,-0.75
2022-12-26T05:33:39.925Z,-0.53
2022-12-26T05:36:08.526Z,-0.66
2022-12-26T05:38:36.417Z,-0.70
2022-12-26T05:41:04.293Z,-0.69
2022-12-26T05:43:32.618Z,-0.44
2022-12-26T05:45:59.967Z,-0.51
2022-12-26T05:48:28.343Z,-0.48
2022-12-26T05:51:00.904Z,-0.52
2022-12-26T05:53:30.062Z,-0.76
2022-12-26T05:56:14.663Z,-0.71
2022-12-26T05:58:43.031Z,-0.88
2022-12-26T06:01:20.063Z,-0.82
2022-12-26T06:03:55.355Z,-1.05
2022-12-26T06:06:24.547Z,-1.09
2022-12-26T06:08:54.137Z,-0.77
2022-12-26T06:11:22.131Z,-0.78
2022-12-26T06:13:50.674Z,-0.96
2022-12-26T06:16:19.106Z,-0.87
2022-12-26T06:18:46.889Z,-0.70
2022-12-26T06:21:16.767Z,-0.60
2022-12-26T06:23:45.199Z,-0.74
2022-12-26T06:26:13.235Z,-0.55
2022-12-26T06:28:42.709Z,-0.40
2022-12-26T06:31:14.822Z,-0.56
2022-12-26T06:33:42.771Z,-0.65
2022-12-26T06:36:13.547Z,-0.57
2022-12-26T06:38:42.174Z,-0.58
2022-12-26T06:41:12.477Z,-0.38
2022-12-26T06:43:40.513Z,-0.14
2022-12-26T06:46:10.544Z,0.06
2022-12-26T06:48:41.028Z,-0.03
2022-12-26T06:51:16.561Z,0.15
2022-12-26T06:53:45.067Z,0.30
2022-12-26T06:56:20.850Z,0.23
2022-12-26T06:58:52.775Z,0.30
2022-12-26T07:01:20.744Z,0.21
2022-12-26T07:03:51.869Z,0.24
2022-12-26T07:06:22.299Z,0.27
2022-12-26T07:08:50.735Z,0.50
2022-12-26T07:11:22.835Z,0.74
2022-12-26T07:13:51.648Z,0.76
2022-12-26T07:16:19.246Z,0.72
2022-12-26T07:18:46.792Z,0.66
2022-12-26T07:21:16.215Z,0.66
2022-12-26T07:23:43.669Z,0.59
2022-12-26T07:26:11.068Z,0.74
2022-12-26T07:28:39.131Z,0.82
2022-12-26T07:31:06.838Z,0.92
2022-12-26T07:33:35.041Z,0.96
2022-12-26T07:36:05.990Z,1.13
2022-12-26T07:38:34.209Z,1.09
2022-12-26T07:41:24.867Z,1.08
2022-12-26T07:43:52.842Z,1.15
2022-12-26T07:46:20.333Z,1.27
2022-12-26T07:48:47.875Z,0.94
2022-12-26T07:51:15.790Z,1.13
2022-12-26T07:53:43.618Z,1.11
2022-12-26T07:56:11.066Z,1.32
2022-12-26T07:58:38.687Z,1.47
2022-12-26T08:01:07.031Z,1.40
2022-12-26T08:03:35.791Z,1.84
2022-12-26T08:06:03.617Z,1.86
2022-12-26T08:08:30.887Z,2.19
2022-12-26T08:11:01.021Z,2.22
2022-12-26T08:13:30.389Z,2.38
2022-12-26T08:15:58.171Z,2.72
2022-12-26T08:18:25.997Z,3.14
2022-12-26T08:20:53.458Z,3.59
2022-12-26T08:23:20.872Z,3.74
2022-12-26T08:25:48.699Z,3.98
2022-12-26T08:28:17.285Z,4.01
2022-12-26T08:30:45.681Z,4.19
2022-12-26T08:33:13.863Z,4.61
2022-12-26T08:35:41.511Z,4.92
2022-12-26T08:38:09.004Z,5.30
2022-12-26T08:40:45.092Z,5.37
2022-12-26T08:43:31.910Z,5.69
2022-12-26T08:46:06.875Z,5.93
2022-12-26T08:48:37.039Z,5.64
2022-12-26T08:51:08.713Z,5.85
2022-12-26T08:53:37.579Z,5.80
2022-12-26T08:56:07.310Z,6.08
2022-12-26T08:58:35.566Z,6.41
2022-12-26T09:01:08.640Z,6.06
2022-12-26T09:03:36.917Z,6.09
2022-12-26T09:06:06.791Z,6.56
2022-12-26T09:08:35.656Z,7.02
2022-12-26T09:11:08.645Z,7.61
2022-12-26T09:13:36.915Z,7.41
2022-12-26T09:16:07.097Z,7.44
2022-12-26T09:18:34.744Z,7.99
2022-12-26T09:21:08.346Z,8.31
2022-12-26T09:23:37.151Z,8.55
2022-12-26T09:26:10.634Z,8.37
2022-12-26T09:28:38.839Z,8.20
2022-12-26T09:31:13.292Z,8.41
2022-12-26T09:33:41.604Z,8.96
2022-12-26T09:36:15.138Z,9.41
2022-12-26T09:38:44.090Z,9.34
2022-12-26T09:41:27.118Z,8.95
2022-12-26T09:44:07.881Z,9.09
2022-12-26T09:46:48.578Z,9.20
2022-12-26T09:49:21.195Z,9.67
2022-12-26T09:51:56.830Z,10.12
2022-12-26T09:54:41.630Z,10.14
2022-12-26T09:57:16.168Z,10.05
2022-12-26T10:00:01.689Z,10.42
2022-12-26T10:02:29.223Z,11.13
2022-12-26T10:04:57.238Z,11.04
2022-12-26T10:07:31.881Z,10.92
2022-12-26T10:10:18.506Z,11.36
2022-12-26T10:13:28.715Z,11.70
2022-12-26T10:16:11.030Z,11.81
2022-12-26T10:19:19.907Z,11.93
2022-12-26T10:22:03.899Z,12.30
2022-12-26T10:24:36.292Z,12.09
2022-12-26T10:27:12.547Z,12.56
2022-12-26T10:29:45.853Z,12.65
2022-12-26T10:32:24.401Z,13.04
2022-12-26T10:34:55.276Z,12.94
2022-12-26T10:37:24.267Z,12.88
2022-12-26T10:40:12.802Z,12.87
2022-12-26T10:42:43.726Z,12.78
2022-12-26T10:45:38.143Z,12.73
2022-12-26T10:48:06.451Z,12.57
2022-12-26T10:50:35.194Z,12.46
2022-12-26T10:53:07.113Z,12.82
2022-12-26T10:55:35.827Z,13.50
2022-12-26T10:58:12.575Z,13.31
2022-12-26T11:00:40.332Z,14.26
2022-12-26T11:03:16.552Z,14.61
2022-12-26T11:06:07.448Z,14.83
2022-12-26T11:08:43.497Z,15.12
2022-12-26T11:11:21.548Z,15.59
2022-12-26T11:14:02.063Z,15.15
2022-12-26T11:16:35.662Z,15.20
2022-12-26T11:19:03.546Z,15.38
2022-12-26T11:21:32.888Z,15.36
2022-12-26T11:24:09.434Z,15.86
2022-12-26T11:26:39.149Z,16.43
2022-12-26T11:29:21.640Z,16.35
2022-12-26T11:31:54.511Z,16.38
2022-12-26T11:34:35.748Z,16.73
2022-12-26T11:37:07.606Z,16.91
2022-12-26T11:39:37.478Z,17.31
2022-12-26T11:42:12.950Z,17.29
2022-12-26T11:44:44.281Z,16.85
2022-12-26T11:47:17.025Z,16.94
2022-12-26T11:50:03.377Z,17.04
2022-12-26T11:52:34.779Z,16.59
2022-12-26T11:55:02.473Z,16.80
2022-12-26T11:57:32.499Z,17.21
2022-12-26T12:00:19.530Z,17.42
2022-12-26T12:02:48.430Z,17.62
2022-12-26T12:05:23.571Z,17.21
2022-12-26T12:08:02.842Z,17.51
2022-12-26T12:10:48.071Z,17.59
2022-12-26T12:13:44.217Z,17.58
2022-12-26T12:16:39.507Z,17.64
2022-12-26T12:19:38.409Z,18.00
2022-12-26T12:22:10.945Z,18.24
2022-12-26T12:24:53.811Z,18.39
2022-12-26T12:27:31.337Z,18.38
2022-12-26T12:30:21.031Z,18.33
2022-12-26T12:33:06.864Z,18.59
2022-12-26T12:36:01.149Z,19.03
2022-12-26T12:38:40.397Z,19.46
2022-12-26T12:41:24.903Z,20.06
2022-12-26T12:44:02.070Z,20.05
2022-12-26T12:47:17.703Z,20.16
2022-12-26T12:49:54.383Z,20.33
2022-12-26T12:52:48.618Z,20.94
2022-12-26T12:55:52.182Z,21.80
2022-12-26T12:58:29.059Z,22.25
2022-12-26T13:01:06.721Z,22.44
2022-12-26T13:03:50.499Z,22.73
2022-12-26T13:06:44.030Z,22.95
2022-12-26T13:09:20.768Z,23.44
2022-12-26T13:11:57.804Z,23.90
2022-12-26T13:14:34.664Z,24.44
2022-12-26T13:17:41.137Z,25.21
2022-12-26T13:20:50.914Z,24.28
2022-12-26T13:24:00.039Z,23.79
2022-12-26T13:26:32.475Z,22.86
2022-12-26T13:29:36.761Z,22.24
2022-12-26T13:32:21.136Z,20.93
2022-12-26T13:34:49.325Z,19.47
2022-12-26T13:37:38.803Z,17.90
2022-12-26T13:40:12.431Z,16.96
2022-12-26T13:43:04.638Z,16.15
2022-12-26T13:45:38.274Z,14.87
2022-12-26T13:48:18.339Z,14.35
2022-12-26T13:50:57.521Z,13.82
2022-12-26T13:53:25.161Z,13.46
2022-12-26T13:55:55.770Z,13.14
2022-12-26T13:58:32.205Z,12.99
2022-12-26T14:01:05.716Z,12.95
2022-12-26T14:03:59.308Z,12.45
2022-12-26T14:06:30.071Z,12.27
2022-12-26T14:09:24.267Z,12.16
2022-12-26T14:12:10.107Z,12.00
2022-12-26T14:15:00.182Z,11.65
2022-12-26T14:17:33.726Z,11.45
2022-12-26T14:20:39.478Z,11.20
2022-12-26T14:23:07.352Z,11.20
2022-12-26T14:25:53.698Z,11.08
2022-12-26T14:28:30.022Z,10.93
2022-12-26T14:31:26.756Z,10.72
2022-12-26T14:34:10.769Z,10.66
2022-12-26T14:36:48.552Z,10.44
2022-12-26T14:39:31.153Z,10.39
2022-12-26T14:42:26.777Z,10.23
2022-12-26T14:44:56.325Z,9.97
2022-12-26T14:47:44.322Z,9.82
2022-12-26T14:50:33.312Z,9.79
2022-12-26T14:53:28.800Z,9.73
2022-12-26T14:56:08.381Z,9.71
2022-12-26T14:58:36.107Z,9.47
2022-12-26T15:01:09.489Z,9.07
2022-12-26T15:03:37.283Z,9.20
2022-12-26T15:06:39.932Z,9.09
2022-12-26T15:09:49.857Z,8.91
2022-12-26T15:12:41.719Z,8.61
2022-12-26T15:15:21.678Z,8.46
2022-12-26T15:18:04.194Z,8.40
2022-12-26T15:20:50.198Z,8.25
2022-12-26T15:23:54.367Z,8.17
2022-12-26T15:26:49.906Z,8.00
2022-12-26T15:29:29.404Z,8.02
2022-12-26T15:32:04.765Z,7.81
2022-12-26T15:35:04.473Z,7.70
2022-12-26T15:38:24.865Z,7.59
2022-12-26T15:41:14.278Z,7.32
2022-12-26T15:44:11.389Z,7.31
2022-12-26T15:46:46.415Z,7.42
2022-12-26T15:49:23.851Z,7.14
2022-12-26T15:52:20.172Z,6.74
2022-12-26T15:55:35.860Z,6.88
2022-12-26T15:58:23.441Z,6.95
2022-12-26T16:00:53.836Z,6.87
2022-12-26T16:03:41.978Z,7.06
2022-12-26T16:06:14.995Z,6.92
2022-12-26T16:09:08.474Z,6.91
2022-12-26T16:11:48.376Z,6.53
2022-12-26T16:14:28.573Z,6.23
2022-12-26T16:17:10.582Z,6.01
2022-12-26T16:19:38.403Z,6.00
2022-12-26T16:22:26.699Z,5.88
2022-12-26T16:24:55.257Z,5.80
2022-12-26T16:27:24.783Z,6.09
2022-12-26T16:29:57.407Z,5.91
2022-12-26T16:32:32.023Z,5.94
2022-12-26T16:34:59.991Z,5.97
2022-12-26T16:37:29.273Z,5.75
2022-12-26T16:40:18.309Z,5.95
2022-12-26T16:43:03.459Z,5.62
2022-12-26T16:45:34.537Z,5.43
2022-12-26T16:48:07.284Z,5.32
2022-12-26T16:50:44.474Z,5.26
2022-12-26T16:53:17.992Z,5.35
2022-12-26T16:55:50.202Z,5.19
2022-12-26T16:58:25.316Z,4.55
2022-12-26T17:01:07.528Z,4.17
2022-12-26T17:03:44.636Z,4.06
2022-12-26T17:06:16.930Z,4.45
2022-12-26T17:08:49.234Z,4.66
2022-12-26T17:11:17.445Z,4.52
2022-12-26T17:13:54.168Z,4.54
2022-12-26T17:16:24.915Z,4.09
2022-12-26T17:18:57.366Z,4.26
2022-12-26T17:21:32.989Z,4.48
2022-12-26T17:24:23.684Z,4.49
2022-12-26T17:27:19.011Z,4.27
2022-12-26T17:29:53.527Z,4.12
2022-12-26T17:32:43.562Z,4.15
2022-12-26T17:35:13.549Z,3.97
2022-12-26T17:37:41.683Z,4.09
2022-12-26T17:40:15.643Z,4.18
2022-12-26T17:42:48.158Z,4.22
2022-12-26T17:45:18.702Z,4.18
2022-12-26T17:47:46.343Z,3.77
2022-12-26T17:50:14.129Z,3.92
2022-12-26T17:52:41.719Z,3.88
2022-12-26T17:55:26.833Z,4.00
2022-12-26T17:57:54.230Z,3.96
2022-12-26T18:00:27.142Z,4.05
2022-12-26T18:02:56.131Z,4.03
2022-12-26T18:05:23.622Z,3.65
2022-12-26T18:07:52.251Z,3.62
2022-12-26T18:10:23.639Z,3.48
2022-12-26T18:12:52.241Z,3.85
2022-12-26T18:15:20.288Z,3.52
2022-12-26T18:17:49.098Z,3.58
2022-12-26T18:20:19.312Z,3.48
2022-12-26T18:22:51.454Z,3.50
2022-12-26T18:25:21.748Z,3.47
2022-12-26T18:27:49.903Z,3.59
2022-12-26T18:30:20.592Z,3.67
2022-12-26T18:32:49.819Z,3.40
2022-12-26T18:35:18.724Z,3.08
2022-12-26T18:37:48.936Z,3.16
2022-12-26T18:40:34.134Z,3.14
2022-12-26T18:43:02.221Z,3.17
2022-12-26T18:45:30.861Z,2.86
2022-12-26T18:48:00.298Z,3.00
2022-12-26T18:50:28.545Z,3.02
2022-12-26T18:52:56.399Z,3.13
2022-12-26T18:55:25.678Z,3.03
2022-12-26T18:57:53.217Z,2.93
2022-12-26T19:00:22.493Z,2.99
2022-12-26T19:02:51.495Z,3.08
2022-12-26T19:05:23.722Z,2.97
2022-12-26T19:07:51.669Z,2.95
2022-12-26T19:10:21.945Z,2.83
2022-12-26T19:12:49.653Z,2.96
2022-12-26T19:15:17.928Z,2.80
2022-12-26T19:17:45.845Z,2.84
2022-12-26T19:20:19.535Z,2.97
2022-12-26T19:22:48.647Z,2.94
2022-12-26T19:25:18.003Z,2.76
2022-12-26T19:27:45.604Z,2.70
2022-12-26T19:30:13.935Z,2.85
2022-12-26T19:32:43.400Z,2.74
2022-12-26T19:35:12.060Z,2.66
2022-12-26T19:37:40.356Z,2.67
2022-12-26T19:40:08.850Z,2.73
2022-12-26T19:42:37.540Z,2.66
2022-12-26T19:45:07.116Z,2.67
2022-12-26T19:47:34.990Z,2.67
2022-12-26T19:50:03.465Z,2.70
2022-12-26T19:52:31.254Z,2.56
2022-12-26T19:54:58.597Z,2.66
2022-12-26T19:57:26.201Z,2.43
2022-12-26T19:59:53.873Z,2.33
2022-12-26T20:02:21.385Z,2.47
2022-12-26T20:04:49.315Z,2.28
2022-12-26T20:07:16.687Z,2.36
2022-12-26T20:09:44.508Z,2.42
2022-12-26T20:12:12.224Z,2.38
2022-12-26T20:14:39.613Z,2.38
2022-12-26T20:17:09.365Z,2.35
2022-12-26T20:19:37.935Z,2.34
2022-12-26T20:22:05.869Z,2.04
2022-12-26T20:24:33.765Z,2.23
2022-12-26T20:27:02.673Z,2.07
2022-12-26T20:29:30.387Z,2.11
2022-12-26T20:31:58.150Z,2.14
2022-12-26T20:34:26.575Z,2.06
2022-12-26T20:36:54.069Z,2.13
2022-12-26T20:39:22.897Z,1.83
2022-12-26T20:41:50.816Z,1.87
2022-12-26T20:44:19.097Z,2.07
2022-12-26T20:46:46.785Z,1.98
2022-12-26T20:49:14.770Z,1.89
2022-12-26T20:51:43.901Z,1.86
2022-12-26T20:54:12.776Z,1.86
2022-12-26T20:56:41.411Z,2.06
2022-12-26T20:59:09.363Z,1.73
2022-12-26T21:01:38.065Z,1.68
2022-12-26T21:04:07.283Z,1.75
2022-12-26T21:06:36.921Z,1.81
2022-12-26T21:09:06.782Z,1.48
2022-12-26T21:11:38.306Z,1.53
2022-12-26T21:14:08.797Z,1.39
2022-12-26T21:16:39.712Z,1.55
2022-12-26T21:19:12.501Z,1.59
2022-12-26T21:21:45.641Z,1.74
2022-12-26T21:24:27.955Z,1.67
2022-12-26T21:26:56.444Z,1.30
2022-12-26T21:29:27.032Z,1.39
2022-12-26T21:31:55.019Z,1.61
2022-12-26T21:34:26.669Z,1.60
2022-12-26T21:37:13.546Z,1.62
2022-12-26T21:39:41.951Z,1.45
2022-12-26T21:42:10.168Z,1.85
2022-12-26T21:44:38.092Z,1.39
2022-12-26T21:47:08.258Z,1.51
2022-12-26T21:49:36.605Z,1.50
2022-12-26T21:52:05.777Z,1.30
2022-12-26T21:54:51.925Z,1.35
2022-12-26T21:57:19.814Z,1.28
2022-12-26T21:59:56.934Z,1.37
2022-12-26T22:02:53.408Z,1.27
2022-12-26T22:05:24.451Z,1.40
2022-12-26T22:07:59.474Z,1.24
2022-12-26T22:10:49.424Z,1.19
2022-12-26T22:13:17.995Z,1.19
2022-12-26T22:16:03.912Z,1.15
2022-12-26T22:18:44.477Z,1.28
2022-12-26T22:21:22.741Z,1.13
2022-12-26T22:23:51.098Z,0.87
2022-12-26T22:26:20.643Z,0.75
2022-12-26T22:28:48.154Z,0.76
2022-12-26T22:31:22.542Z,0.86
2022-12-26T22:33:56.030Z,0.79
2022-12-26T22:36:24.111Z,0.80
2022-12-26T22:38:51.792Z,0.99
2022-12-26T22:41:19.523Z,0.84
2022-12-26T22:43:47.348Z,0.88
2022-12-26T22:46:15.119Z,0.95
2022-12-26T22:48:43.078Z,1.00
2022-12-26T22:51:20.801Z,0.79
2022-12-26T22:53:49.225Z,0.79
2022-12-26T22:56:16.640Z,0.96
2022-12-26T22:58:43.972Z,0.81
2022-12-26T23:01:16.968Z,0.89
2022-12-26T23:03:44.991Z,0.52
2022-12-26T23:06:23.050Z,0.61
2022-12-26T23:08:54.468Z,0.64
2022-12-26T23:11:27.413Z,0.61
2022-12-26T23:14:00.144Z,0.52
2022-12-26T23:16:50.778Z,0.79
2022-12-26T23:19:40.660Z,0.86
2022-12-26T23:22:08.486Z,0.77
2022-12-26T23:24:35.920Z,0.80
2022-12-26T23:27:25.243Z,0.67
2022-12-26T23:30:32.852Z,0.25
2022-12-26T23:33:00.221Z,0.42
2022-12-26T23:35:27.976Z,0.58
2022-12-26T23:37:55.372Z,0.46
2022-12-26T23:40:23.115Z,0.46
2022-12-26T23:42:50.767Z,0.51
2022-12-26T23:45:18.311Z,0.39
2022-12-26T23:47:46.660Z,0.45
2022-12-26T23:50:15.969Z,0.31
2022-12-26T23:52:44.283Z,0.43
2022-12-26T23:55:12.383Z,0.68
2022-12-26T23:57:40.022Z,0.77
